createdAt,value
2023-04-12T00:00:51.314Z,9.23
2023-04-12T00:03:17.737Z,6.97
2023-04-12T00:05:44.150Z,7.82
2023-04-12T00:08:10.435Z,7.18
2023-04-12T00:10:36.854Z,6.93
2023-04-12T00:13:03.505Z,5.50
2023-04-12T00:15:29.801Z,6.95
2023-04-12T00:17:56.133Z,5.10
2023-04-12T00:20:22.460Z,5.97
2023-04-12T00:22:48.721Z,6.53
2023-04-12T00:25:15.027Z,7.57
2023-04-12T00:27:41.323Z,5.47
2023-04-12T00:30:08.023Z,7.22
2023-04-12T00:32:34.390Z,5.28
2023-04-12T00:35:00.721Z,6.00
2023-04-12T00:37:27.076Z,6.05
2023-04-12T00:39:53.379Z,5.72
2023-04-12T00:42:19.712Z,6.35
2023-04-12T00:44:46.008Z,5.50
2023-04-12T00:47:12.356Z,6.70
2023-04-12T00:49:38.757Z,6.78
2023-04-12T00:52:08.257Z,5.28
2023-04-12T00:54:35.381Z,7.35
2023-04-12T00:57:02.409Z,6.57
2023-04-12T00:59:29.036Z,6.60
2023-04-12T01:01:59.957Z,6.63
2023-04-12T01:04:27.698Z,6.57
2023-04-12T01:06:56.733Z,5.85
2023-04-12T01:09:26.068Z,6.15
2023-04-12T01:12:23.167Z,5.78
2023-04-12T01:15:07.198Z,6.68
2023-04-12T01:17:41.916Z,9.32
2023-04-12T01:20:14.177Z,4.47
2023-04-12T01:22:55.694Z,7.07
2023-04-12T01:25:42.954Z,7.30
2023-04-12T01:28:14.597Z,7.82
2023-04-12T01:30:42.634Z,6.50
2023-04-12T01:33:11.957Z,7.75
2023-04-12T01:35:40.089Z,5.88
2023-04-12T01:38:06.883Z,7.32
2023-04-12T01:40:33.428Z,6.38
2023-04-12T01:43:07.462Z,5.47
2023-04-12T01:45:34.552Z,6.05
2023-04-12T01:48:01.863Z,6.75
2023-04-12T01:50:53.294Z,5.13
2023-04-12T01:53:46.598Z,7.70
2023-04-12T01:56:15.331Z,7.75
2023-04-12T01:58:43.720Z,6.63
2023-04-12T02:01:13.256Z,6.20
2023-04-12T02:03:43.279Z,6.82
2023-04-12T02:06:10.618Z,7.35
2023-04-12T02:08:36.985Z,7.63
2023-04-12T02:11:12.186Z,5.00
2023-04-12T02:13:38.498Z,5.10
2023-04-12T02:16:05.035Z,6.68
2023-04-12T02:18:31.320Z,6.60
2023-04-12T02:20:57.624Z,7.70
2023-04-12T02:23:23.940Z,7.13
2023-04-12T02:25:50.265Z,8.00
2023-04-12T02:28:16.572Z,5.57
2023-04-12T02:30:42.939Z,6.68
2023-04-12T02:33:09.391Z,5.45
2023-04-12T02:35:36.301Z,6.13
2023-04-12T02:38:02.947Z,5.40
2023-04-12T02:40:32.492Z,6.85
2023-04-12T02:42:58.793Z,5.55
2023-04-12T02:45:25.194Z,5.72
2023-04-12T02:47:51.600Z,6.72
2023-04-12T02:50:17.969Z,6.72
2023-04-12T02:52:44.274Z,7.80
2023-04-12T02:55:10.597Z,6.82
2023-04-12T02:57:36.922Z,6.32
2023-04-12T03:00:03.879Z,5.97
2023-04-12T03:02:33.078Z,8.25
2023-04-12T03:04:59.574Z,7.18
2023-04-12T03:07:25.874Z,7.88
2023-04-12T03:09:52.177Z,6.45
2023-04-12T03:12:18.462Z,4.78
2023-04-12T03:14:44.761Z,6.43
2023-04-12T03:17:11.060Z,5.25
2023-04-12T03:19:37.498Z,5.50
2023-04-12T03:22:04.457Z,6.13
2023-04-12T03:24:30.949Z,6.60
2023-04-12T03:26:57.283Z,6.72
2023-04-12T03:29:23.573Z,8.13
2023-04-12T03:31:49.914Z,8.93
2023-04-12T03:34:16.207Z,5.40
2023-04-12T03:36:42.584Z,6.03
2023-04-12T03:39:08.936Z,5.20
2023-04-12T03:41:35.313Z,7.63
2023-04-12T03:44:01.610Z,5.85
2023-04-12T03:46:27.978Z,7.05
2023-04-12T03:48:54.379Z,8.30
2023-04-12T03:51:20.838Z,6.28
2023-04-12T03:53:47.140Z,7.68
2023-04-12T03:56:13.474Z,5.15
2023-04-12T03:58:40.255Z,7.00
2023-04-12T04:01:06.824Z,7.47
2023-04-12T04:03:33.796Z,4.68
2023-04-12T04:06:01.446Z,5.60
2023-04-12T04:08:28.799Z,7.32
2023-04-12T04:10:56.988Z,9.98
2023-04-12T04:13:23.354Z,7.82
2023-04-12T04:15:52.091Z,6.78
2023-04-12T04:18:18.400Z,8.60
2023-04-12T04:20:44.688Z,10.82
2023-04-12T04:23:11.028Z,8.82
2023-04-12T04:25:37.381Z,5.47
2023-04-12T04:28:03.802Z,5.55
2023-04-12T04:30:30.137Z,5.45
2023-04-12T04:32:56.702Z,6.68
2023-04-12T04:35:23.106Z,4.47
2023-04-12T04:37:49.441Z,6.30
2023-04-12T04:40:15.900Z,6.93
2023-04-12T04:42:42.166Z,7.10
2023-04-12T04:45:08.951Z,12.13
2023-04-12T04:47:35.269Z,4.90
2023-04-12T04:50:01.721Z,6.50
2023-04-12T04:52:28.033Z,5.60
2023-04-12T04:54:54.337Z,6.88
2023-04-12T04:57:20.633Z,8.57
2023-04-12T04:59:46.915Z,8.43
2023-04-12T05:02:13.322Z,7.20
2023-04-12T05:04:39.657Z,9.68
2023-04-12T05:07:05.964Z,7.20
2023-04-12T05:09:32.265Z,11.63
2023-04-12T05:11:58.603Z,7.63
2023-04-12T05:14:33.784Z,9.85
2023-04-12T05:17:07.903Z,7.10
2023-04-12T05:19:34.254Z,9.02
2023-04-12T05:22:00.563Z,11.95
2023-04-12T05:24:26.891Z,7.45
2023-04-12T05:26:53.224Z,7.70
2023-04-12T05:29:19.517Z,10.02
2023-04-12T05:31:45.802Z,8.02
2023-04-12T05:34:12.105Z,7.80
2023-04-12T05:36:38.522Z,11.18
2023-04-12T05:39:04.882Z,8.68
2023-04-12T05:41:31.202Z,9.50
2023-04-12T05:43:57.521Z,7.85
2023-04-12T05:46:23.964Z,9.25
2023-04-12T05:48:50.344Z,9.90
2023-04-12T05:51:18.280Z,14.93
2023-04-12T05:53:47.520Z,8.95
2023-04-12T05:56:13.841Z,8.25
2023-04-12T05:58:40.140Z,9.48
2023-04-12T06:01:06.578Z,8.30
2023-04-12T06:03:33.162Z,10.40
2023-04-12T06:05:59.701Z,12.32
2023-04-12T06:08:26.039Z,8.18
2023-04-12T06:10:52.342Z,7.90
2023-04-12T06:13:18.616Z,8.23
2023-04-12T06:15:44.952Z,7.82
2023-04-12T06:18:11.375Z,8.15
2023-04-12T06:20:39.380Z,6.93
2023-04-12T06:23:05.704Z,7.50
2023-04-12T06:25:32.072Z,10.70
2023-04-12T06:27:58.415Z,8.10
2023-04-12T06:30:24.792Z,6.30
2023-04-12T06:32:51.224Z,9.93
2023-04-12T06:35:17.585Z,5.65
2023-04-12T06:37:43.889Z,8.00
2023-04-12T06:40:10.254Z,7.53
2023-04-12T06:42:36.602Z,6.80
2023-04-12T06:45:02.989Z,6.25
2023-04-12T06:47:29.848Z,9.40
2023-04-12T06:49:56.369Z,4.97
2023-04-12T06:52:26.073Z,6.32
2023-04-12T06:54:53.117Z,10.27
2023-04-12T06:57:19.462Z,8.65
2023-04-12T06:59:45.808Z,11.13
2023-04-12T07:02:12.181Z,7.80
2023-04-12T07:04:38.508Z,7.05
2023-04-12T07:07:04.836Z,7.50
2023-04-12T07:09:31.410Z,9.48
2023-04-12T07:11:58.480Z,9.15
2023-04-12T07:14:24.760Z,8.50
2023-04-12T07:16:51.183Z,8.43
2023-04-12T07:19:17.602Z,7.18
2023-04-12T07:21:43.965Z,6.28
2023-04-12T07:24:10.304Z,6.80
2023-04-12T07:26:36.810Z,6.57
2023-04-12T07:29:03.145Z,8.50
2023-04-12T07:31:29.492Z,7.40
2023-04-12T07:33:55.995Z,6.78
2023-04-12T07:36:22.390Z,6.18
2023-04-12T07:38:48.737Z,5.47
2023-04-12T07:41:15.046Z,4.63
2023-04-12T07:43:41.329Z,6.00
2023-04-12T07:46:07.656Z,6.15
2023-04-12T07:48:34.573Z,4.47
2023-04-12T07:51:00.867Z,2.90
2023-04-12T07:53:28.185Z,3.63
2023-04-12T07:55:55.968Z,4.22
2023-04-12T07:58:24.256Z,5.22
2023-04-12T08:00:52.116Z,3.22
2023-04-12T08:03:19.124Z,4.97
2023-04-12T08:08:12.271Z,2.67
2023-04-12T08:10:39.614Z,2.47
2023-04-12T08:13:06.809Z,4.80
2023-04-12T08:17:59.588Z,2.50
2023-04-12T08:20:25.937Z,4.93
2023-04-12T08:22:52.480Z,2.92
2023-04-12T08:25:18.800Z,2.50
2023-04-12T08:27:45.554Z,2.42
2023-04-12T08:30:12.800Z,2.58
2023-04-12T08:32:39.232Z,9.20
2023-04-12T08:35:06.298Z,3.15
2023-04-12T08:37:33.116Z,3.78
2023-04-12T08:40:05.632Z,2.10
2023-04-12T08:42:34.083Z,4.13
2023-04-12T08:45:05.079Z,1.95
2023-04-12T08:47:37.064Z,3.33
2023-04-12T08:50:04.141Z,1.75
2023-04-12T08:55:08.292Z,3.78
2023-04-12T08:57:40.609Z,3.72
2023-04-12T09:00:08.298Z,2.42
2023-04-12T09:02:38.140Z,3.17
2023-04-12T09:05:05.904Z,2.25
2023-04-12T09:07:33.266Z,2.38
2023-04-12T09:09:59.536Z,4.57
2023-04-12T09:12:25.990Z,3.03
2023-04-12T09:15:12.957Z,3.80
2023-04-12T09:17:41.229Z,2.90
2023-04-12T09:20:16.834Z,3.17
2023-04-12T09:22:44.401Z,4.18
2023-04-12T09:25:14.074Z,2.90
2023-04-12T09:27:50.900Z,2.70
2023-04-12T09:30:19.320Z,2.83
2023-04-12T09:32:46.150Z,2.90
2023-04-12T09:35:15.560Z,4.30
2023-04-12T09:37:41.911Z,3.33
2023-04-12T09:40:09.769Z,4.57
2023-04-12T09:42:50.974Z,3.80
2023-04-12T09:45:20.787Z,3.50
2023-04-12T09:47:47.328Z,3.55
2023-04-12T09:50:21.531Z,2.55
2023-04-12T09:52:48.082Z,3.88
2023-04-12T09:55:15.472Z,4.22
2023-04-12T09:57:44.555Z,3.63
2023-04-12T10:00:12.936Z,4.05
2023-04-12T10:02:42.736Z,4.03
2023-04-12T10:05:11.525Z,4.65
2023-04-12T10:07:40.012Z,6.20
2023-04-12T10:10:07.814Z,4.47
2023-04-12T10:12:36.239Z,3.85
2023-04-12T10:15:06.830Z,5.55
2023-04-12T10:17:34.948Z,2.85
2023-04-12T10:20:02.945Z,2.92
2023-04-12T10:22:29.356Z,4.25
2023-04-12T10:24:55.727Z,3.72
2023-04-12T10:27:25.929Z,5.50
2023-04-12T10:29:52.302Z,5.20
2023-04-12T10:32:25.526Z,4.28
2023-04-12T10:34:57.712Z,3.17
2023-04-12T10:38:01.712Z,4.45
2023-04-12T10:40:29.089Z,3.95
2023-04-12T10:43:23.147Z,2.33
2023-04-12T10:45:50.188Z,3.50
2023-04-12T10:48:37.807Z,3.70
2023-04-12T10:51:29.081Z,2.05
2023-04-12T10:54:07.825Z,4.03
2023-04-12T10:56:35.817Z,3.70
2023-04-12T10:59:04.656Z,3.50
2023-04-12T11:01:31.680Z,4.80
2023-04-12T11:07:21.099Z,2.85
2023-04-12T11:09:47.374Z,3.08
2023-04-12T11:12:17.155Z,3.28
2023-04-12T11:14:48.710Z,4.25
2023-04-12T11:17:15.134Z,3.55
2023-04-12T11:19:45.591Z,3.53
2023-04-12T11:22:17.086Z,4.68
2023-04-12T11:24:45.319Z,4.45
2023-04-12T11:27:12.196Z,2.97
2023-04-12T11:32:06.573Z,5.70
2023-04-12T11:34:34.399Z,4.35
2023-04-12T11:37:01.122Z,4.57
2023-04-12T11:41:56.778Z,4.53
2023-04-12T11:44:23.349Z,4.38
2023-04-12T11:46:49.703Z,4.63
2023-04-12T11:49:20.426Z,5.00
2023-04-12T11:51:49.496Z,2.88
2023-04-12T11:54:15.993Z,2.30
2023-04-12T11:56:42.382Z,4.68
2023-04-12T11:59:08.811Z,6.28
2023-04-12T12:01:35.499Z,4.72
2023-04-12T12:04:02.338Z,4.15
2023-04-12T12:06:29.712Z,4.53
2023-04-12T12:08:56.556Z,4.28
2023-04-12T12:11:24.496Z,3.03
2023-04-12T12:13:52.649Z,6.20
2023-04-12T12:16:26.808Z,3.30
2023-04-12T12:18:53.509Z,3.33
2023-04-12T12:21:20.413Z,5.32
2023-04-12T12:26:24.212Z,3.63
2023-04-12T12:28:52.983Z,3.75
2023-04-12T12:31:24.798Z,2.38
2023-04-12T12:33:55.871Z,3.40
2023-04-12T12:36:36.336Z,4.45
2023-04-12T12:39:11.372Z,4.35
2023-04-12T12:41:39.336Z,5.03
2023-04-12T12:44:05.648Z,4.45
2023-04-12T12:49:04.667Z,3.13
2023-04-12T12:51:31.026Z,3.25
2023-04-12T12:53:57.560Z,2.88
2023-04-12T12:56:24.025Z,3.63
2023-04-12T12:58:50.332Z,3.05
2023-04-12T13:01:16.639Z,5.57
2023-04-12T13:03:43.064Z,4.88
2023-04-12T13:06:09.593Z,3.50
2023-04-12T13:08:35.902Z,3.25
2023-04-12T13:11:02.373Z,3.88
2023-04-12T13:13:28.724Z,4.30
2023-04-12T13:15:55.098Z,3.22
2023-04-12T13:18:21.432Z,4.32
2023-04-12T13:20:47.718Z,3.10
2023-04-12T13:23:14.507Z,2.92
2023-04-12T13:25:40.886Z,4.32
2023-04-12T13:28:07.219Z,4.10
2023-04-12T13:30:33.508Z,6.22
2023-04-12T13:32:59.866Z,2.67
2023-04-12T13:35:26.244Z,2.22
2023-04-12T13:37:52.511Z,3.47
2023-04-12T13:40:18.931Z,4.00
2023-04-12T13:42:45.233Z,3.38
2023-04-12T13:45:11.822Z,1.80
2023-04-12T13:47:38.593Z,3.67
2023-04-12T13:50:05.437Z,3.95
2023-04-12T13:52:31.776Z,2.25
2023-04-12T13:54:58.093Z,4.30
2023-04-12T13:57:24.373Z,3.00
2023-04-12T13:59:50.676Z,3.58
2023-04-12T14:02:17.020Z,3.42
2023-04-12T14:04:53.843Z,3.45
2023-04-12T14:07:20.215Z,4.45
2023-04-12T14:09:46.562Z,2.50
2023-04-12T14:12:12.881Z,4.35
2023-04-12T14:14:39.185Z,3.72
2023-04-12T14:17:05.538Z,2.30
2023-04-12T14:19:31.921Z,4.10
2023-04-12T14:21:58.293Z,4.90
2023-04-12T14:24:24.637Z,4.97
2023-04-12T14:26:50.930Z,3.05
2023-04-12T14:29:17.305Z,2.30
2023-04-12T14:31:43.605Z,3.45
2023-04-12T14:34:09.957Z,3.35
2023-04-12T14:36:36.444Z,3.92
2023-04-12T14:39:03.378Z,4.65
2023-04-12T14:43:56.611Z,3.53
2023-04-12T14:46:23.045Z,6.65
2023-04-12T14:48:49.390Z,4.75
2023-04-12T14:51:15.706Z,3.33
2023-04-12T14:53:41.974Z,2.72
2023-04-12T14:56:24.336Z,4.57
2023-04-12T14:58:55.325Z,3.03
2023-04-12T15:01:22.789Z,3.38
2023-04-12T15:03:49.821Z,2.75
2023-04-12T15:06:16.238Z,4.80
2023-04-12T15:08:42.551Z,3.08
2023-04-12T15:11:10.042Z,2.65
2023-04-12T15:13:38.240Z,2.80
2023-04-12T15:16:05.383Z,2.88
2023-04-12T15:18:31.863Z,3.00
2023-04-12T15:20:58.236Z,3.08
2023-04-12T15:23:24.530Z,4.75
2023-04-12T15:25:58.277Z,6.10
2023-04-12T15:28:24.788Z,4.82
2023-04-12T15:30:51.076Z,3.17
2023-04-12T15:33:17.417Z,3.33
2023-04-12T15:35:43.710Z,4.60
2023-04-12T15:38:11.864Z,3.72
2023-04-12T15:40:40.635Z,3.03
2023-04-12T15:43:06.953Z,2.83
2023-04-12T15:45:33.293Z,2.70
2023-04-12T15:47:59.693Z,2.85
2023-04-12T15:50:26.017Z,2.72
2023-04-12T15:52:52.319Z,3.78
2023-04-12T15:55:18.832Z,2.90
2023-04-12T15:57:45.115Z,3.85
2023-04-12T16:00:12.002Z,4.63
2023-04-12T16:02:39.699Z,5.22
2023-04-12T16:05:06.302Z,4.40
2023-04-12T16:07:32.618Z,5.03
2023-04-12T16:09:58.920Z,4.75
2023-04-12T16:12:25.205Z,5.03
2023-04-12T16:14:51.994Z,4.18
2023-04-12T16:17:18.349Z,3.50
2023-04-12T16:19:44.634Z,3.67
2023-04-12T16:22:11.293Z,6.30
2023-04-12T16:24:37.645Z,5.28
2023-04-12T16:27:03.955Z,5.38
2023-04-12T16:29:30.258Z,6.47
2023-04-12T16:31:56.573Z,5.78
2023-04-12T16:34:22.913Z,6.22
2023-04-12T16:36:49.261Z,12.05
2023-04-12T16:39:15.607Z,8.57
2023-04-12T16:41:41.963Z,5.13
2023-04-12T16:44:08.260Z,6.50
2023-04-12T16:46:34.579Z,5.38
2023-04-12T16:49:00.872Z,5.50
2023-04-12T16:51:27.260Z,5.25
2023-04-12T16:54:03.491Z,5.32
2023-04-12T16:56:29.788Z,5.75
2023-04-12T16:58:56.133Z,4.32
2023-04-12T17:01:22.434Z,4.97
2023-04-12T17:03:48.834Z,5.78
2023-04-12T17:06:15.237Z,6.18
2023-04-12T17:08:41.550Z,4.10
2023-04-12T17:11:07.867Z,6.13
2023-04-12T17:13:34.267Z,6.40
2023-04-12T17:16:00.590Z,5.45
2023-04-12T17:18:26.945Z,7.50
2023-04-12T17:20:53.286Z,9.32
2023-04-12T17:23:19.596Z,6.10
2023-04-12T17:25:45.982Z,6.38
2023-04-12T17:28:12.380Z,4.30
2023-04-12T17:30:38.851Z,6.00
2023-04-12T17:33:05.260Z,5.57
2023-04-12T17:35:31.597Z,7.03
2023-04-12T17:37:57.973Z,5.15
2023-04-12T17:40:24.316Z,4.05
2023-04-12T17:42:50.664Z,5.95
2023-04-12T17:45:16.984Z,5.93
2023-04-12T17:47:43.363Z,5.22
2023-04-12T17:50:10.988Z,10.68
2023-04-12T17:52:37.849Z,10.85
2023-04-12T17:55:07.793Z,12.38
2023-04-12T17:57:34.217Z,7.45
2023-04-12T18:00:00.654Z,5.53
2023-04-12T18:02:27.080Z,4.53
2023-04-12T18:04:53.636Z,5.38
2023-04-12T18:07:22.856Z,5.40
2023-04-12T18:09:49.291Z,5.70
2023-04-12T18:12:15.614Z,4.90
2023-04-12T18:14:41.946Z,5.55
2023-04-12T18:17:08.367Z,5.28
2023-04-12T18:19:34.876Z,5.43
2023-04-12T18:22:01.214Z,9.30
2023-04-12T18:24:30.417Z,14.57
2023-04-12T18:26:56.722Z,8.80
2023-04-12T18:29:23.045Z,7.38
2023-04-12T18:31:49.521Z,5.25
2023-04-12T18:34:15.848Z,5.05
2023-04-12T18:36:42.259Z,4.80
2023-04-12T18:39:08.621Z,5.57
2023-04-12T18:41:34.992Z,3.38
2023-04-12T18:44:01.455Z,4.45
2023-04-12T18:46:27.976Z,5.97
2023-04-12T18:48:54.269Z,5.38
2023-04-12T18:51:24.113Z,3.80
2023-04-12T18:53:50.632Z,6.35
2023-04-12T18:56:18.414Z,6.85
2023-04-12T18:58:54.653Z,4.68
2023-04-12T19:01:24.015Z,7.50
2023-04-12T19:03:50.453Z,3.88
2023-04-12T19:06:16.916Z,3.78
2023-04-12T19:08:43.240Z,4.82
2023-04-12T19:11:09.615Z,4.63
2023-04-12T19:13:36.030Z,3.40
2023-04-12T19:16:02.589Z,4.32
2023-04-12T19:18:29.056Z,6.22
2023-04-12T19:20:56.128Z,4.55
2023-04-12T19:25:48.720Z,3.92
2023-04-12T19:28:15.061Z,5.18
2023-04-12T19:30:41.428Z,5.68
2023-04-12T19:33:07.746Z,3.70
2023-04-12T19:35:34.535Z,6.45
2023-04-12T19:38:03.883Z,5.30
2023-04-12T19:40:31.260Z,5.05
2023-04-12T19:42:57.668Z,6.32
2023-04-12T19:45:24.159Z,3.75
2023-04-12T19:47:50.557Z,3.83
2023-04-12T19:50:17.022Z,5.40
2023-04-12T19:52:43.846Z,3.38
2023-04-12T19:55:10.878Z,3.15
2023-04-12T19:57:38.238Z,3.88
2023-04-12T20:00:05.896Z,6.53
2023-04-12T20:02:32.299Z,4.65
2023-04-12T20:04:58.663Z,8.98
2023-04-12T20:07:24.976Z,6.90
2023-04-12T20:09:51.389Z,4.75
2023-04-12T20:12:17.700Z,3.25
2023-04-12T20:14:44.086Z,6.78
2023-04-12T20:17:10.467Z,4.80
2023-04-12T20:19:36.873Z,3.90
2023-04-12T20:22:03.467Z,6.05
2023-04-12T20:24:30.106Z,3.70
2023-04-12T20:26:59.202Z,4.35
2023-04-12T20:29:25.571Z,3.40
2023-04-12T20:31:51.872Z,3.05
2023-04-12T20:34:18.161Z,3.92
2023-04-12T20:36:44.443Z,3.63
2023-04-12T20:39:10.731Z,5.20
2023-04-12T20:41:37.017Z,4.45
2023-04-12T20:44:03.345Z,3.22
2023-04-12T20:46:29.783Z,4.78
2023-04-12T20:48:56.809Z,3.15
2023-04-12T20:53:49.627Z,3.58
2023-04-12T20:56:16.174Z,3.83
2023-04-12T20:58:42.502Z,4.55
2023-04-12T21:01:09.023Z,3.78
2023-04-12T21:03:35.649Z,4.97
2023-04-12T21:06:02.421Z,4.20
2023-04-12T21:08:29.113Z,4.55
2023-04-12T21:10:55.450Z,3.67
2023-04-12T21:13:21.915Z,3.17
2023-04-12T21:15:49.102Z,2.67
2023-04-12T21:20:44.832Z,5.85
2023-04-12T21:23:13.976Z,4.80
2023-04-12T21:25:40.295Z,4.10
2023-04-12T21:28:06.564Z,5.30
2023-04-12T21:30:33.043Z,4.93
2023-04-12T21:32:59.346Z,3.72
2023-04-12T21:35:25.672Z,5.50
2023-04-12T21:37:51.987Z,3.67
2023-04-12T21:40:19.211Z,6.35
2023-04-12T21:42:45.537Z,3.70
2023-04-12T21:45:11.827Z,4.80
2023-04-12T21:47:40.311Z,5.75
2023-04-12T21:50:07.909Z,4.18
2023-04-12T21:52:34.493Z,6.60
2023-04-12T21:55:00.885Z,4.10
2023-04-12T21:57:33.680Z,3.85
2023-04-12T22:00:01.762Z,5.30
2023-04-12T22:02:28.185Z,4.03
2023-04-12T22:04:54.578Z,5.60
2023-04-12T22:07:20.894Z,5.78
2023-04-12T22:09:47.194Z,6.50
2023-04-12T22:12:13.481Z,4.68
2023-04-12T22:14:40.501Z,6.47
2023-04-12T22:17:06.840Z,6.68
2023-04-12T22:19:49.300Z,4.05
2023-04-12T22:22:15.582Z,4.88
2023-04-12T22:24:42.166Z,5.22
2023-04-12T22:27:08.487Z,5.82
2023-04-12T22:29:34.966Z,5.78
2023-04-12T22:32:01.576Z,5.07
2023-04-12T22:34:28.045Z,5.03
2023-04-12T22:36:54.504Z,6.35
2023-04-12T22:39:21.267Z,5.90
2023-04-12T22:41:50.946Z,6.43
2023-04-12T22:44:17.284Z,4.75
2023-04-12T22:46:44.213Z,5.90
2023-04-12T22:49:10.583Z,8.50
2023-04-12T22:51:36.846Z,6.45
2023-04-12T22:54:03.233Z,4.22
2023-04-12T22:56:29.558Z,5.82
2023-04-12T22:58:55.906Z,5.35
2023-04-12T23:01:22.361Z,6.70
2023-04-12T23:03:48.656Z,6.95
2023-04-12T23:06:14.939Z,4.75
2023-04-12T23:08:41.251Z,5.97
2023-04-12T23:11:07.586Z,5.85
2023-04-12T23:13:34.703Z,7.00
2023-04-12T23:18:30.482Z,5.57
2023-04-12T23:20:56.771Z,5.38
2023-04-12T23:23:23.063Z,6.70
2023-04-12T23:25:49.389Z,6.05
2023-04-12T23:28:19.104Z,6.47
2023-04-12T23:30:48.370Z,5.30
2023-04-12T23:33:19.093Z,5.97
2023-04-12T23:35:46.973Z,6.65
2023-04-12T23:38:13.688Z,5.32
2023-04-12T23:40:39.988Z,6.35
2023-04-12T23:43:06.280Z,4.97
2023-04-12T23:45:32.554Z,5.55
2023-04-12T23:47:58.887Z,7.10
2023-04-12T23:50:27.430Z,4.53
2023-04-12T23:52:53.695Z,6.55
2023-04-12T23:55:20.095Z,7.40
2023-04-12T23:57:46.469Z,6.55
